Time;durP1;ratioP1;P1;durP2;ratioP2;P2;SDS_P1;SDS_P2;PMS_P1;PMS_P2;Temp;Humidity;BMP_temperature;BMP_pressure;BME280_temperature;BME280_humidity;BME280_pressure;Samples;Min_cycle;Max_cycle;Signal;HPM_P1;HPM_P2
2023/10/27 00:01:46;;;;;;;10.40;9.10;;;;;;;11.11;92.16;98318.94;5052321;28;20202;-66
2023/10/27 00:04:14;;;;;;;9.53;8.07;;;;;;;11.10;91.85;98312.13;5053456;28;20194;-67
2023/10/27 00:06:42;;;;;;;9.47;8.57;;;;;;;11.10;91.57;98311.28;5050482;28;20201;-66
2023/10/27 00:09:10;;;;;;;9.77;8.67;;;;;;;11.12;91.87;98309.50;5049678;28;20538;-66
2023/10/27 00:11:38;;;;;;;9.50;8.60;;;;;;;11.08;91.15;98307.94;5050961;28;20209;-75
2023/10/27 00:14:07;;;;;;;9.40;8.40;;;;;;;11.00;91.12;98290.22;5055248;28;20582;-64
2023/10/27 00:16:35;;;;;;;8.80;7.90;;;;;;;11.07;90.74;98299.38;5049348;28;20240;-64
2023/10/27 00:19:04;;;;;;;9.77;8.57;;;;;;;11.06;90.54;98294.28;5050468;28;20248;-65
2023/10/27 00:21:32;;;;;;;9.93;8.47;;;;;;;11.08;90.97;98303.63;5051621;28;20209;-63
2023/10/27 00:24:00;;;;;;;8.77;7.87;;;;;;;11.05;90.62;98296.03;5049633;28;20287;-63
2023/10/27 00:26:28;;;;;;;9.20;8.23;;;;;;;11.03;90.84;98282.34;5050991;28;20213;-64
2023/10/27 00:28:55;;;;;;;9.43;8.50;;;;;;;11.04;91.45;98281.44;5044951;28;20210;-64
2023/10/27 00:31:23;;;;;;;9.63;8.40;;;;;;;11.04;91.18;98278.03;5048890;28;20304;-65
2023/10/27 00:33:52;;;;;;;8.93;7.70;;;;;;;10.99;90.92;98270.50;5046543;28;20226;-63
2023/10/27 00:36:21;;;;;;;12.10;8.97;;;;;;;11.00;91.04;98279.06;5050852;28;20620;-65
2023/10/27 00:38:50;;;;;;;9.70;8.67;;;;;;;10.98;91.16;98286.88;5048581;28;20209;-63
2023/10/27 00:41:18;;;;;;;9.20;8.30;;;;;;;10.97;91.02;98289.50;5050189;28;20283;-64
2023/10/27 00:43:46;;;;;;;9.53;8.53;;;;;;;10.95;91.10;98286.16;5054021;28;20210;-63
2023/10/27 00:46:14;;;;;;;9.20;8.23;;;;;;;10.96;91.26;98303.28;5050260;28;20202;-65
2023/10/27 00:48:42;;;;;;;9.87;8.87;;;;;;;10.92;91.43;98291.44;5049881;28;20214;-65
2023/10/27 00:51:09;;;;;;;8.23;7.43;;;;;;;10.91;91.05;98293.19;5048504;28;20206;-65
2023/10/27 00:53:39;;;;;;;9.20;8.23;;;;;;;10.93;91.29;98293.94;5047241;28;20198;-66
2023/10/27 00:56:07;;;;;;;9.20;8.30;;;;;;;10.95;91.43;98281.00;5047100;28;20208;-65
2023/10/27 00:58:35;;;;;;;9.17;8.17;;;;;;;10.95;91.47;98286.16;5049387;28;20206;-64
2023/10/27 01:01:05;;;;;;;9.03;8.13;;;;;;;10.92;91.38;98287.13;5048201;28;20206;-65
2023/10/27 01:03:34;;;;;;;9.10;7.80;;;;;;;10.94;91.62;98287.06;5045796;28;20681;-63
2023/10/27 01:06:02;;;;;;;9.37;8.30;;;;;;;10.95;91.65;98281.00;5052917;28;20201;-63
2023/10/27 01:08:30;;;;;;;11.00;7.97;;;;;;;10.94;91.54;98287.91;5044337;28;20203;-63
2023/10/27 01:10:59;;;;;;;8.67;7.80;;;;;;;10.91;91.66;98279.47;5050342;28;20284;-66
2023/10/27 01:13:27;;;;;;;8.90;8.00;;;;;;;10.89;91.51;98279.50;5048089;28;20205;-63
2023/10/27 01:15:55;;;;;;;8.67;7.70;;;;;;;10.91;91.39;98274.31;5053940;28;20233;-63
2023/10/27 01:18:23;;;;;;;9.47;8.53;;;;;;;10.89;91.94;98272.59;5048796;28;20654;-63
2023/10/27 01:20:51;;;;;;;8.30;7.50;;;;;;;10.89;91.35;98264.88;5044413;28;20908;-65
2023/10/27 01:23:20;;;;;;;9.13;8.23;;;;;;;10.88;91.50;98270.09;5046779;28;20205;-63
2023/10/27 01:25:48;;;;;;;8.83;7.93;;;;;;;10.86;91.11;98270.19;5048950;28;20210;-64
2023/10/27 01:28:16;;;;;;;7.87;7.07;;;;;;;10.87;91.51;98273.59;5052103;28;20289;-65
2023/10/27 01:30:44;;;;;;;8.60;7.50;;;;;;;10.88;91.37;98273.53;5047238;28;20237;-63
2023/10/27 01:33:11;;;;;;;10.70;8.33;;;;;;;10.90;91.59;98273.47;5049628;28;20563;-62
2023/10/27 01:35:39;;;;;;;9.10;8.20;;;;;;;10.88;91.64;98265.78;5053049;28;20226;-63
2023/10/27 01:38:07;;;;;;;8.70;7.80;;;;;;;10.89;91.31;98272.59;5048588;28;20194;-62
2023/10/27 01:40:36;;;;;;;9.50;8.03;;;;;;;10.89;91.24;98275.19;5046613;28;20560;-62
2023/10/27 01:43:04;;;;;;;9.17;8.27;;;;;;;10.88;91.05;98270.09;5055231;28;20653;-62
2023/10/27 01:45:32;;;;;;;9.33;8.23;;;;;;;10.88;91.38;98264.97;5046031;28;20201;-62
2023/10/27 01:48:00;;;;;;;9.60;8.60;;;;;;;10.87;91.74;98269.28;5049917;28;20241;-63
2023/10/27 01:50:28;;;;;;;11.13;8.60;;;;;;;10.87;91.52;98264.13;5048690;28;20229;-62
2023/10/27 01:52:56;;;;;;;9.27;7.80;;;;;;;10.84;91.32;98260.84;5047732;28;20260;-63
2023/10/27 01:55:24;;;;;;;9.10;8.20;;;;;;;10.83;91.64;98261.75;5050234;28;20551;-62
2023/10/27 01:57:53;;;;;;;9.43;7.73;;;;;;;10.84;91.08;98258.25;5051714;28;20699;-65
2023/10/27 02:00:22;;;;;;;10.07;7.93;;;;;;;10.80;91.64;98248.97;5055138;28;20243;-62
2023/10/27 02:02:50;;;;;;;11.00;8.73;;;;;;;10.82;91.52;98252.31;5051639;28;20213;-64
2023/10/27 02:05:18;;;;;;;8.53;7.37;;;;;;;10.82;91.43;98249.75;5056245;28;20266;-63
2023/10/27 02:07:46;;;;;;;8.93;8.03;;;;;;;10.80;91.42;98243.84;5057839;28;20213;-64
2023/10/27 02:10:14;;;;;;;9.03;8.10;;;;;;;10.77;91.60;98241.38;5056239;28;20213;-62
2023/10/27 02:12:42;;;;;;;9.47;7.97;;;;;;;10.76;91.52;98237.13;5048714;28;20264;-65
2023/10/27 02:15:12;;;;;;;10.60;8.57;;;;;;;10.74;91.32;98244.06;5046095;28;20218;-63
2023/10/27 02:17:40;;;;;;;10.47;7.90;;;;;;;10.75;91.17;98243.16;5053120;28;20253;-63
2023/10/27 02:20:09;;;;;;;10.13;8.67;;;;;;;10.72;91.50;98244.16;5055255;28;20202;-64
2023/10/27 02:22:37;;;;;;;9.23;8.07;;;;;;;10.73;91.14;98244.97;5056779;28;20251;-63
2023/10/27 02:25:05;;;;;;;8.97;8.07;;;;;;;10.70;91.49;98240.78;5053870;28;20199;-63
2023/10/27 02:27:38;;;;;;;9.93;8.00;;;;;;;10.72;90.99;98238.16;5059394;28;20205;-62
2023/10/27 02:30:07;;;;;;;9.40;8.37;;;;;;;10.73;91.00;98244.97;5056852;28;20217;-64
2023/10/27 02:32:36;;;;;;;8.43;7.43;;;;;;;10.68;91.02;98237.44;5045650;28;20202;-64
2023/10/27 02:35:05;;;;;;;9.80;7.57;;;;;;;10.69;90.71;98244.28;5048858;28;20253;-63
2023/10/27 02:37:33;;;;;;;9.03;7.53;;;;;;;10.65;90.70;98242.72;5060424;28;20660;-64
2023/10/27 02:40:01;;;;;;;12.30;8.20;;;;;;;10.61;90.72;98244.59;5054723;28;20202;-62
2023/10/27 02:42:30;;;;;;;9.63;8.33;;;;;;;10.62;91.06;98251.41;5054525;28;20256;-62
2023/10/27 02:44:58;;;;;;;8.87;7.97;;;;;;;10.60;90.65;98239.47;5052536;28;20630;-64
2023/10/27 02:47:26;;;;;;;10.23;8.13;;;;;;;10.60;91.20;98245.50;5053119;28;20252;-66
2023/10/27 02:49:55;;;;;;;10.20;8.43;;;;;;;10.63;90.59;98241.94;5048293;28;20232;-65
2023/10/27 02:52:23;;;;;;;8.43;7.63;;;;;;;10.63;90.71;98235.03;5050154;28;20206;-66
2023/10/27 02:54:51;;;;;;;9.10;7.33;;;;;;;10.65;90.47;98240.16;5052847;28;20218;-62
2023/10/27 02:57:19;;;;;;;8.93;7.57;;;;;;;10.64;90.43;98236.75;5056718;28;20281;-64
2023/10/27 02:59:47;;;;;;;7.80;7.00;;;;;;;10.63;90.39;98229.88;5053707;28;20217;-65
2023/10/27 03:02:14;;;;;;;9.47;7.63;;;;;;;10.68;90.63;98232.31;5050922;28;20203;-62
2023/10/27 03:04:43;;;;;;;8.03;7.20;;;;;;;10.67;90.25;98238.31;5056632;28;20240;-62
2023/10/27 03:07:13;;;;;;;8.97;6.93;;;;;;;10.64;89.86;98236.75;5050642;28;20556;-63
2023/10/27 03:09:41;;;;;;;7.93;7.13;;;;;;;10.67;90.18;98229.78;5054324;28;20238;-63
2023/10/27 03:12:08;;;;;;;8.37;7.00;;;;;;;10.67;89.54;98224.63;5049046;28;20213;-64
2023/10/27 03:14:37;;;;;;;9.63;7.70;;;;;;;10.69;89.64;98227.97;5051861;28;20198;-65
2023/10/27 03:17:05;;;;;;;11.07;7.50;;;;;;;10.67;89.76;98228.03;5052250;28;20267;-63
2023/10/27 03:19:32;;;;;;;11.17;7.43;;;;;;;10.67;89.92;98222.03;5054199;28;20209;-63
2023/10/27 03:22:02;;;;;;;8.63;7.40;;;;;;;10.67;89.74;98222.03;5056014;28;20603;-64
2023/10/27 03:24:31;;;;;;;8.17;6.93;;;;;;;10.67;89.62;98225.44;5051019;28;20657;-65
2023/10/27 03:26:59;;;;;;;11.33;7.93;;;;;;;10.68;89.51;98228.84;5051142;28;20644;-62
2023/10/27 03:29:27;;;;;;;8.87;7.70;;;;;;;10.68;89.66;98226.28;5053410;28;20653;-64
2023/10/27 03:31:56;;;;;;;11.33;7.80;;;;;;;10.66;89.33;98217.78;5052121;28;20287;-63
2023/10/27 03:34:24;;;;;;;10.50;8.20;;;;;;;10.63;89.48;98214.44;5051247;28;20665;-63
2023/10/27 03:36:52;;;;;;;9.37;7.87;;;;;;;10.61;89.55;98205.94;5055971;28;20276;-62
2023/10/27 03:39:20;;;;;;;8.87;7.83;;;;;;;10.64;89.56;98200.69;5059209;28;20193;-66
2023/10/27 03:41:49;;;;;;;9.73;7.70;;;;;;;10.67;89.74;98198.88;5051555;28;20593;-64
2023/10/27 03:44:17;;;;;;;9.20;7.50;;;;;;;10.68;89.27;98192.78;5047248;28;20316;-61
2023/10/27 03:46:45;;;;;;;8.90;7.60;;;;;;;10.68;89.08;98191.09;5054010;28;20595;-61
2023/10/27 03:49:13;;;;;;;8.43;7.40;;;;;;;10.69;89.10;98197.06;5047039;28;20279;-61
2023/10/27 03:51:41;;;;;;;9.27;8.20;;;;;;;10.71;89.22;98190.09;5065058;28;20235;-62
2023/10/27 03:54:08;;;;;;;8.70;7.60;;;;;;;10.71;88.88;98200.41;5056697;28;20210;-62
2023/10/27 03:56:36;;;;;;;9.30;8.30;;;;;;;10.71;88.99;98190.94;5058106;28;20264;-62
2023/10/27 03:59:06;;;;;;;9.33;8.33;;;;;;;10.73;88.47;98196.03;5049025;28;20194;-62
2023/10/27 04:01:34;;;;;;;8.90;7.43;;;;;;;10.72;88.70;98196.94;5051016;28;20301;-62
2023/10/27 04:04:02;;;;;;;10.03;8.00;;;;;;;10.76;88.96;98201.06;5045758;28;20611;-62
2023/10/27 04:06:31;;;;;;;9.47;7.53;;;;;;;10.76;88.54;98198.50;5056071;28;20756;-60
2023/10/27 04:08:59;;;;;;;10.67;8.10;;;;;;;10.76;88.28;98204.47;5051998;28;20226;-61
2023/10/27 04:11:27;;;;;;;8.87;7.97;;;;;;;10.75;88.26;98212.25;5060468;28;20559;-60
2023/10/27 04:13:55;;;;;;;9.40;8.40;;;;;;;10.75;88.44;98207.97;5055287;28;20202;-62
2023/10/27 04:16:25;;;;;;;8.90;8.00;;;;;;;10.74;88.30;98216.56;5048739;28;20242;-60
2023/10/27 04:18:53;;;;;;;11.20;8.07;;;;;;;10.73;88.24;98220.06;5053221;28;20576;-63
2023/10/27 04:21:21;;;;;;;11.53;7.80;;;;;;;10.68;88.80;98210.81;5049412;28;20209;-61
2023/10/27 04:23:49;;;;;;;9.90;7.73;;;;;;;10.70;88.93;98219.34;5049561;28;20292;-61
2023/10/27 04:26:17;;;;;;;8.80;7.87;;;;;;;10.70;88.73;98219.34;5051062;28;20641;-61
2023/10/27 04:28:46;;;;;;;9.17;7.17;;;;;;;10.69;88.94;98218.50;5051710;28;20202;-60
2023/10/27 04:31:14;;;;;;;10.13;7.80;;;;;;;10.69;89.14;98217.69;5062866;28;20590;-62
2023/10/27 04:33:43;;;;;;;8.97;7.30;;;;;;;10.69;89.26;98225.41;5045931;28;20565;-64
2023/10/27 04:36:11;;;;;;;8.43;7.27;;;;;;;10.68;88.88;98213.41;5052020;28;20213;-64
2023/10/27 04:38:39;;;;;;;8.63;7.23;;;;;;;10.69;88.99;98217.69;5055533;28;20214;-62
2023/10/27 04:41:07;;;;;;;8.83;6.87;;;;;;;10.63;88.55;98214.44;5058244;28;20205;-63
2023/10/27 04:43:35;;;;;;;8.27;6.87;;;;;;;10.64;89.07;98215.25;5056304;28;20238;-64
2023/10/27 04:46:03;;;;;;;8.70;6.50;;;;;;;10.65;88.68;98214.38;5050637;28;20206;-60
2023/10/27 04:48:31;;;;;;;11.00;7.03;;;;;;;10.63;88.70;98214.44;5050006;28;20214;-64
2023/10/27 04:51:03;;;;;;;6.80;5.67;;;;;;;10.63;88.49;98221.31;5044229;28;20206;-62
2023/10/27 04:53:32;;;;;;;7.43;6.60;;;;;;;10.59;88.56;98218.03;5042334;28;20202;-63
2023/10/27 04:55:59;;;;;;;8.33;7.43;;;;;;;10.60;88.54;98219.75;5052731;28;20206;-63
2023/10/27 04:58:28;;;;;;;7.47;6.67;;;;;;;10.58;88.54;98224.09;5045370;28;20731;-64
2023/10/27 05:00:56;;;;;;;8.47;7.23;;;;;;;10.56;88.48;98214.75;5050112;28;20271;-64
2023/10/27 05:03:24;;;;;;;8.73;7.37;;;;;;;10.50;88.79;98226.16;5049121;28;20213;-64
2023/10/27 05:05:52;;;;;;;9.03;7.70;;;;;;;10.51;88.82;98227.00;5051785;28;20214;-66
2023/10/27 05:08:21;;;;;;;9.70;7.43;;;;;;;10.51;88.88;98225.25;5049929;28;20652;-68
2023/10/27 05:10:49;;;;;;;8.20;7.33;;;;;;;10.49;89.06;98232.19;5046523;28;20221;-64
2023/10/27 05:13:17;;;;;;;8.73;6.40;;;;;;;10.46;88.94;98231.50;5046692;28;20233;-63
2023/10/27 05:15:53;;;;;;;10.30;7.70;;;;;;;10.43;89.02;98231.63;5049351;28;20256;-64
2023/10/27 05:18:21;;;;;;;8.87;7.50;;;;;;;10.44;89.19;98239.25;5050855;28;20244;-67
2023/10/27 05:20:49;;;;;;;8.90;7.67;;;;;;;10.47;89.16;98228.84;5050018;28;20209;-72
2023/10/27 05:23:17;;;;;;;9.03;8.13;;;;;;;10.45;89.13;98235.78;5053576;28;20210;-70
2023/10/27 05:25:47;;;;;;;9.73;7.53;;;;;;;10.45;89.21;98240.94;5051107;28;20251;-70
2023/10/27 05:28:15;;;;;;;9.13;7.93;;;;;;;10.45;89.08;98240.09;5049497;28;20205;-70
2023/10/27 05:30:46;;;;;;;9.80;8.47;;;;;;;10.45;88.89;98235.78;5049203;28;20221;-68
2023/10/27 05:33:15;;;;;;;10.17;8.33;;;;;;;10.42;88.59;98251.38;5052023;28;20656;-74
2023/10/27 05:35:43;;;;;;;9.67;8.03;;;;;;;10.42;88.89;98246.22;5060298;28;20213;-74
2023/10/27 05:38:11;;;;;;;11.33;9.40;;;;;;;10.41;89.05;98241.97;5059435;28;20299;-73
2023/10/27 05:40:39;;;;;;;9.20;7.93;;;;;;;10.41;89.33;98254.81;5055316;28;20213;-73
2023/10/27 05:43:09;;;;;;;11.43;8.30;;;;;;;10.44;89.44;98259.88;5052735;28;20279;-72
2023/10/27 05:45:37;;;;;;;9.07;8.17;;;;;;;10.43;88.93;98257.38;5053888;28;20201;-75
2023/10/27 05:48:05;;;;;;;10.50;9.10;;;;;;;10.44;88.60;98257.28;5045873;28;20285;-66
2023/10/27 05:50:33;;;;;;;10.63;9.10;;;;;;;10.45;88.66;98261.53;5048769;28;20198;-66
2023/10/27 05:53:01;;;;;;;10.20;8.63;;;;;;;10.44;88.48;98265.00;5052269;28;20214;-69
2023/10/27 05:55:29;;;;;;;11.67;9.40;;;;;;;10.45;88.74;98255.53;5058139;28;20285;-75
2023/10/27 05:57:57;;;;;;;9.60;8.33;;;;;;;10.45;88.13;98266.69;5064669;28;20224;-67
2023/10/27 06:00:27;;;;;;;11.27;7.47;;;;;;;10.46;88.12;98265.81;5059798;28;20206;-63
2023/10/27 06:02:55;;;;;;;10.37;7.53;;;;;;;10.46;87.98;98275.28;5056015;28;20664;-62
2023/10/27 06:05:24;;;;;;;11.67;8.77;;;;;;;10.48;88.18;98279.44;5054692;28;20229;-62
2023/10/27 06:07:52;;;;;;;9.63;8.27;;;;;;;10.47;87.76;98272.63;5051008;28;20210;-63
2023/10/27 06:10:20;;;;;;;8.43;7.47;;;;;;;10.49;87.45;98272.53;5048106;28;20222;-62
2023/10/27 06:12:48;;;;;;;10.20;7.93;;;;;;;10.49;87.58;98275.97;5055059;28;20206;-61
2023/10/27 06:15:16;;;;;;;9.70;7.20;;;;;;;10.48;87.43;98278.59;5049003;28;20339;-63
2023/10/27 06:17:46;;;;;;;10.67;7.60;;;;;;;10.48;87.46;98283.75;5049104;28;20280;-63
2023/10/27 06:20:14;;;;;;;9.60;7.57;;;;;;;10.47;87.23;98288.06;5048851;28;20202;-63
2023/10/27 06:22:47;;;;;;;8.40;7.50;;;;;;;10.47;87.18;98293.22;5048788;28;20210;-65
2023/10/27 06:25:15;;;;;;;9.67;7.57;;;;;;;10.50;86.96;98293.09;5051088;28;20206;-66
2023/10/27 06:27:43;;;;;;;9.27;7.67;;;;;;;10.55;86.64;98291.19;5052465;28;20293;-77
2023/10/27 06:30:12;;;;;;;9.40;7.10;;;;;;;10.56;86.66;98295.41;5064612;28;20202;-68
2023/10/27 06:32:40;;;;;;;9.80;7.00;;;;;;;10.59;86.60;98289.31;5062623;28;20279;-66
2023/10/27 06:35:11;;;;;;;10.43;7.87;;;;;;;10.60;86.07;98289.28;5056224;28;20203;-68
2023/10/27 06:37:39;;;;;;;10.33;7.57;;;;;;;10.64;86.25;98282.22;5050525;28;20561;-66
2023/10/27 06:40:08;;;;;;;8.67;6.77;;;;;;;10.66;86.26;98277.88;5053058;28;20252;-66
2023/10/27 06:42:36;;;;;;;7.27;6.53;;;;;;;10.71;85.62;98283.66;5054595;28;20293;-64
2023/10/27 06:45:05;;;;;;;8.33;7.10;;;;;;;10.68;85.14;98270.94;5056958;28;20597;-67
2023/10/27 06:47:35;;;;;;;7.60;6.30;;;;;;;10.80;85.25;98287.63;5053539;28;20264;-67
2023/10/27 06:50:05;;;;;;;9.03;7.10;;;;;;;10.84;84.55;98290.00;5053899;28;20216;-74
2023/10/27 06:52:35;;;;;;;7.53;6.53;;;;;;;10.86;84.54;98277.91;5053815;28;20250;-67
2023/10/27 06:55:07;;;;;;;8.10;6.70;;;;;;;11.00;83.97;98294.53;5051836;28;20213;-71
2023/10/27 06:57:37;;;;;;;9.17;6.53;;;;;;;11.06;83.48;98286.56;5053626;28;20234;-67
2023/10/27 07:00:06;;;;;;;9.20;6.87;;;;;;;11.15;83.58;98287.91;5050014;28;20585;-68
2023/10/27 07:02:34;;;;;;;7.40;6.70;;;;;;;11.22;83.23;98279.84;5050717;28;20695;-66
2023/10/27 07:05:23;;;;;;;7.33;6.07;;;;;;;11.33;82.64;98280.22;5042208;28;20205;-66
2023/10/27 07:07:54;;;;;;;8.00;6.60;;;;;;;11.42;82.69;98279.00;5050098;28;20251;-65
2023/10/27 07:10:22;;;;;;;7.30;6.30;;;;;;;11.50;81.32;98274.34;5051149;28;20244;-65
2023/10/27 07:12:50;;;;;;;6.40;5.80;;;;;;;11.53;80.91;98269.06;5049314;28;20230;-62
2023/10/27 07:15:19;;;;;;;8.23;6.50;;;;;;;11.57;81.02;98273.16;5047774;28;20205;-63
2023/10/27 07:17:47;;;;;;;8.97;7.17;;;;;;;11.67;80.71;98259.84;5053082;28;20600;-67
2023/10/27 07:20:17;;;;;;;12.37;6.57;;;;;;;11.79;80.93;98260.16;5059320;28;20221;-68
2023/10/27 07:22:45;;;;;;;7.80;7.00;;;;;;;11.95;80.11;98262.88;5061191;28;20206;-66
2023/10/27 07:25:15;;;;;;;8.07;6.13;;;;;;;12.12;79.81;98267.28;5061344;28;20213;-67
2023/10/27 07:27:45;;;;;;;8.13;6.87;;;;;;;12.25;78.83;98262.38;5052307;28;20632;-71
2023/10/27 07:30:14;;;;;;;8.33;6.63;;;;;;;12.31;77.81;98257.78;5054983;28;20233;-73
2023/10/27 07:32:42;;;;;;;8.07;6.80;;;;;;;12.27;76.94;98264.00;5050888;28;20206;-65
2023/10/27 07:35:10;;;;;;;9.20;6.80;;;;;;;12.21;77.39;98255.69;5056757;28;20610;-69
2023/10/27 07:37:38;;;;;;;10.30;6.67;;;;;;;12.20;77.85;98259.19;5058660;28;20256;-67
2023/10/27 07:40:07;;;;;;;10.00;6.60;;;;;;;12.23;77.99;98254.72;5052337;28;20229;-67
2023/10/27 07:42:36;;;;;;;8.50;7.03;;;;;;;12.33;77.91;98257.69;5048343;28;20539;-68
2023/10/27 07:45:05;;;;;;;8.13;6.90;;;;;;;12.42;77.05;98259.84;5054091;28;20289;-70
2023/10/27 07:47:33;;;;;;;10.10;7.13;;;;;;;12.33;76.33;98266.28;5049579;28;20208;-66
2023/10/27 07:50:02;;;;;;;9.63;7.47;;;;;;;12.25;77.24;98257.22;5049591;28;20304;-66
2023/10/27 07:52:30;;;;;;;11.27;7.07;;;;;;;12.26;77.59;98269.22;5055581;28;20205;-63
2023/10/27 07:54:58;;;;;;;10.10;8.03;;;;;;;12.27;77.19;98261.41;5054890;28;20201;-72
2023/10/27 07:57:27;;;;;;;8.27;7.03;;;;;;;12.30;77.02;98265.59;5051638;28;20202;-68
2023/10/27 07:59:56;;;;;;;8.07;6.67;;;;;;;12.33;76.27;98260.25;5048295;28;20238;-67
2023/10/27 08:02:24;;;;;;;9.00;7.03;;;;;;;12.39;76.19;98259.16;5052425;28;20221;-65
2023/10/27 08:04:52;;;;;;;9.40;6.80;;;;;;;12.46;75.49;98266.53;5057010;28;20201;-65
2023/10/27 08:07:20;;;;;;;8.07;6.93;;;;;;;12.56;75.37;98267.78;5047872;28;20208;-64
2023/10/27 08:09:49;;;;;;;10.23;6.93;;;;;;;12.59;74.57;98264.19;5049035;28;20194;-65
2023/10/27 08:12:17;;;;;;;9.37;6.80;;;;;;;12.61;74.16;98267.53;5060903;28;20249;-63
2023/10/27 08:14:45;;;;;;;8.90;7.07;;;;;;;12.60;74.06;98270.22;5048244;28;20271;-61
2023/10/27 08:17:15;;;;;;;7.37;6.60;;;;;;;12.55;74.07;98273.00;5050015;28;20706;-68
2023/10/27 08:19:43;;;;;;;7.10;6.40;;;;;;;12.45;73.45;98270.03;5065452;28;20761;-63
2023/10/27 08:22:11;;;;;;;8.60;6.00;;;;;;;12.33;74.31;98279.22;5054565;28;20748;-62
2023/10/27 08:24:39;;;;;;;7.83;6.37;;;;;;;12.29;75.12;98277.66;5066255;28;20669;-66
2023/10/27 08:27:07;;;;;;;8.47;7.57;;;;;;;12.29;75.31;98284.56;5062159;28;20283;-67
2023/10/27 08:29:35;;;;;;;7.17;6.40;;;;;;;12.24;75.34;98281.38;5056144;28;20190;-66
2023/10/27 08:32:06;;;;;;;8.43;6.37;;;;;;;12.21;75.11;98286.69;5056101;28;20234;-66
2023/10/27 08:34:39;;;;;;;7.20;6.23;;;;;;;12.18;75.52;98286.81;5047305;28;20213;-67
2023/10/27 08:37:07;;;;;;;7.30;5.87;;;;;;;12.15;75.67;98294.69;5051315;28;20571;-67
2023/10/27 08:39:35;;;;;;;7.20;6.30;;;;;;;12.14;75.75;98286.13;5052322;28;20576;-66
2023/10/27 08:42:04;;;;;;;7.43;5.87;;;;;;;12.15;75.51;98280.06;5053013;28;20621;-66
2023/10/27 08:44:34;;;;;;;6.73;5.77;;;;;;;12.09;75.55;98277.75;5047673;28;20293;-67
2023/10/27 08:47:04;;;;;;;6.70;5.47;;;;;;;12.04;75.68;98283.13;5050110;28;20572;-67
2023/10/27 08:49:33;;;;;;;6.70;5.47;;;;;;;12.09;75.25;98277.75;5054678;28;20225;-68
2023/10/27 08:52:04;;;;;;;6.07;5.20;;;;;;;12.06;74.93;98276.16;5053682;28;20649;-68
2023/10/27 08:54:32;;;;;;;6.23;5.10;;;;;;;12.08;74.69;98279.50;5053449;28;20205;-69
2023/10/27 08:57:00;;;;;;;5.07;4.50;;;;;;;12.13;74.64;98279.28;5048315;28;20645;-66
2023/10/27 08:59:29;;;;;;;6.43;5.10;;;;;;;12.16;74.72;98275.75;5053654;28;20213;-68
2023/10/27 09:01:58;;;;;;;4.70;4.23;;;;;;;12.20;73.44;98280.69;5048667;28;20286;-67
2023/10/27 09:04:26;;;;;;;5.70;5.07;;;;;;;12.17;73.19;98279.97;5047137;28;20272;-65
2023/10/27 09:06:54;;;;;;;5.60;5.07;;;;;;;12.15;72.84;98276.63;5052232;28;20241;-60
2023/10/27 09:09:25;;;;;;;7.90;6.30;;;;;;;12.14;73.53;98285.28;5050050;28;20198;-62
2023/10/27 09:11:53;;;;;;;8.00;6.17;;;;;;;12.15;74.41;98276.63;5057040;28;20210;-63
2023/10/27 09:14:23;;;;;;;8.67;6.43;;;;;;;12.16;74.70;98283.47;5056531;28;20310;-61
2023/10/27 09:16:51;;;;;;;9.17;6.27;;;;;;;12.16;74.63;98284.31;5059151;28;20269;-62
2023/10/27 09:19:26;;;;;;;8.77;6.93;;;;;;;12.09;75.40;98288.91;5062450;28;20665;-63
2023/10/27 09:21:54;;;;;;;7.37;6.27;;;;;;;12.08;75.11;98286.41;5052993;28;20572;-63
2023/10/27 09:24:25;;;;;;;6.33;4.97;;;;;;;12.11;74.94;98280.25;5053081;28;20202;-72
2023/10/27 09:26:54;;;;;;;7.40;6.00;;;;;;;12.09;74.38;98276.00;5053661;28;20210;-73
2023/10/27 09:29:23;;;;;;;6.60;5.70;;;;;;;12.07;75.01;98276.97;5054839;28;20193;-71
2023/10/27 09:31:52;;;;;;;8.73;6.23;;;;;;;12.05;75.14;98271.91;5050861;28;20323;-71
2023/10/27 09:34:21;;;;;;;7.40;5.80;;;;;;;12.08;75.41;98268.34;5043634;28;20299;-68
2023/10/27 09:36:51;;;;;;;7.10;6.03;;;;;;;12.07;74.74;98267.47;5046453;28;20264;-64
2023/10/27 09:39:22;;;;;;;5.27;4.67;;;;;;;12.15;74.90;98277.47;5046592;28;20222;-64
2023/10/27 09:41:58;;;;;;;4.50;4.10;;;;;;;12.15;73.69;98276.63;5043998;28;20206;-63
2023/10/27 09:44:36;;;;;;;4.97;3.70;;;;;;;12.14;72.42;98277.53;5049983;28;20236;-67
2023/10/27 09:47:15;;;;;;;4.53;3.80;;;;;;;12.14;71.10;98274.94;5045468;28;20205;-64
2023/10/27 09:49:49;;;;;;;4.13;3.73;;;;;;;12.16;71.75;98263.66;5057805;28;20690;-67
2023/10/27 09:52:21;;;;;;;4.50;4.00;;;;;;;12.29;71.06;98261.31;5049687;28;20218;-70
2023/10/27 09:54:51;;;;;;;4.40;4.00;;;;;;;12.32;69.75;98263.75;5045498;28;20198;-71
2023/10/27 09:57:31;;;;;;;4.70;4.23;;;;;;;12.33;70.13;98261.13;5047703;28;20284;-69
2023/10/27 10:00:03;;;;;;;4.50;3.97;;;;;;;12.39;70.31;98249.66;5054146;28;20213;-69
2023/10/27 10:02:32;;;;;;;4.13;3.80;;;;;;;12.51;69.98;98254.22;5049567;28;20706;-72
2023/10/27 10:05:01;;;;;;;4.27;3.87;;;;;;;12.61;69.74;98249.47;5051450;28;20210;-69
2023/10/27 10:07:34;;;;;;;4.53;4.13;;;;;;;12.72;69.74;98246.34;5055719;28;20213;-69
2023/10/27 10:10:21;;;;;;;4.20;3.63;;;;;;;12.86;68.46;98248.25;5048708;28;20197;-64
2023/10/27 10:13:01;;;;;;;5.43;4.87;;;;;;;12.90;67.61;98242.84;5048415;28;20218;-64
2023/10/27 10:15:32;;;;;;;4.23;3.83;;;;;;;12.85;67.39;98234.50;5049264;28;20209;-66
2023/10/27 10:18:00;;;;;;;5.37;4.70;;;;;;;12.44;66.95;98190.84;5057415;28;20560;-65
2023/10/27 10:20:57;;;;;;;4.60;4.20;;;;;;;12.65;67.08;98234.66;5057681;28;20213;-68
2023/10/27 10:24:18;;;;;;;7.40;4.97;;;;;;;12.68;67.92;98231.91;5055361;28;20715;-63
2023/10/27 10:27:10;;;;;;;5.23;4.20;;;;;;;12.77;67.92;98219.34;5056536;28;20225;-62
2023/10/27 10:29:40;;;;;;;5.33;3.90;;;;;;;12.86;67.76;98218.09;5052406;28;20739;-64
2023/10/27 10:32:30;;;;;;;4.20;3.80;;;;;;;12.94;67.05;98228.88;5054448;28;20209;-63
2023/10/27 10:35:21;;;;;;;4.07;3.67;;;;;;;13.00;67.04;98215.63;5054579;28;20213;-64
2023/10/27 10:37:53;;;;;;;4.30;3.90;;;;;;;13.02;67.06;98207.78;5057161;28;20555;-63
2023/10/27 10:40:24;;;;;;;4.27;3.87;;;;;;;13.09;66.54;98205.72;5052080;28;20252;-64
2023/10/27 10:43:17;;;;;;;3.90;3.50;;;;;;;13.15;66.90;98200.25;5050958;28;20202;-62
2023/10/27 10:45:50;;;;;;;4.37;3.97;;;;;;;13.19;66.45;98188.84;5041960;28;20206;-66
2023/10/27 10:48:19;;;;;;;3.87;3.50;;;;;;;13.24;65.97;98194.63;5049111;28;20206;-64
2023/10/27 10:50:48;;;;;;;3.90;3.50;;;;;;;13.29;65.95;98195.22;5053179;28;20202;-63
2023/10/27 10:53:17;;;;;;;5.90;3.87;;;;;;;13.32;65.89;98200.22;5048000;28;20205;-63
2023/10/27 10:55:46;;;;;;;4.47;4.07;;;;;;;13.33;64.93;98208.81;5053794;28;20208;-62
2023/10/27 10:58:22;;;;;;;4.37;3.97;;;;;;;13.28;65.50;98207.31;5053226;28;20238;-63
2023/10/27 11:00:53;;;;;;;4.00;3.70;;;;;;;13.29;65.01;98213.31;5055096;28;20217;-66
2023/10/27 11:03:22;;;;;;;6.47;4.47;;;;;;;13.25;64.97;98210.06;5056062;28;20224;-64
2023/10/27 11:05:54;;;;;;;4.90;4.20;;;;;;;13.23;65.16;98211.91;5060254;28;20206;-65
2023/10/27 11:08:25;;;;;;;5.80;5.00;;;;;;;13.21;65.81;98207.69;5055306;28;20297;-63
2023/10/27 11:11:00;;;;;;;5.43;4.10;;;;;;;13.17;65.79;98206.16;5054469;28;20213;-69
2023/10/27 11:13:28;;;;;;;5.53;4.27;;;;;;;13.16;65.38;98204.50;5055418;28;20209;-66
2023/10/27 11:15:58;;;;;;;4.97;4.13;;;;;;;13.16;65.29;98201.91;5060073;28;20283;-65
2023/10/27 11:18:28;;;;;;;4.60;4.20;;;;;;;13.13;65.68;98194.31;5053737;28;20657;-67
2023/10/27 11:20:57;;;;;;;4.83;4.20;;;;;;;13.15;65.53;98192.50;5059320;28;20696;-67
2023/10/27 11:23:28;;;;;;;5.13;4.63;;;;;;;13.09;65.54;98197.97;5052679;28;20206;-75
2023/10/27 11:26:04;;;;;;;4.90;4.30;;;;;;;13.01;66.25;98190.63;5050713;28;20652;-66
2023/10/27 11:28:38;;;;;;;5.10;4.60;;;;;;;12.98;66.12;98189.00;5046213;28;20671;-64
2023/10/27 11:31:12;;;;;;;4.27;3.87;;;;;;;12.99;66.70;98182.91;5057805;28;20203;-65
2023/10/27 11:34:00;;;;;;;7.77;5.40;;;;;;;13.00;66.69;98184.63;5050509;28;20218;-68
2023/10/27 11:36:29;;;;;;;5.73;4.93;;;;;;;13.02;66.00;98181.94;5049753;28;20202;-66
2023/10/27 11:39:10;;;;;;;4.60;4.10;;;;;;;13.01;66.45;98180.28;5043367;28;20194;-66
2023/10/27 11:41:39;;;;;;;5.43;4.10;;;;;;;12.99;66.45;98182.91;5045430;28;20221;-69
2023/10/27 11:44:07;;;;;;;5.87;4.10;;;;;;;12.97;65.70;98179.59;5050572;28;20562;-65